Time;durP1;ratioP1;P1;durP2;ratioP2;P2;SDS_P1;SDS_P2;PMS_P1;PMS_P2;Temp;Humidity;BMP_temperature;BMP_pressure;BME280_temperature;BME280_humidity;BME280_pressure;Samples;Min_cycle;Max_cycle;Signal;HPM_P1;HPM_P2
2022/03/24 00:01:03;;;;;;;45.60;31.33;;;12.50;99.90;;;13.02;62.08;102832.09;5074243;28;20041;-61
2022/03/24 00:03:32;;;;;;;54.35;33.20;;;12.60;99.90;;;13.11;62.30;102851.78;5073810;28;20052;-60
2022/03/24 00:06:00;;;;;;;54.85;32.05;;;12.70;99.90;;;13.02;62.63;102851.59;5073974;28;20518;-60
2022/03/24 00:08:29;;;;;;;47.63;32.47;;;12.60;99.90;;;13.10;62.83;102846.44;5073938;28;20075;-60
2022/03/24 00:11:00;;;;;;;49.28;33.88;;;12.60;99.90;;;13.02;62.48;102822.38;5073984;28;20397;-60
2022/03/24 00:13:29;;;;;;;54.47;29.80;;;12.60;99.90;;;13.16;63.01;102841.25;5073924;28;20110;-60
2022/03/24 00:15:59;;;;;;;35.63;26.40;;;12.70;99.90;;;13.21;63.44;102844.84;5073964;28;20135;-60
2022/03/24 00:18:30;;;;;;;45.47;29.05;;;12.70;99.90;;;13.14;63.28;102846.50;5074093;28;20052;-60
2022/03/24 00:20:58;;;;;;;55.55;33.40;;;12.60;99.90;;;12.85;63.00;102836.22;5074081;28;20048;-60
2022/03/24 00:23:27;;;;;;;46.78;32.00;;;12.60;99.90;;;13.10;62.46;102838.47;5074236;28;20037;-60
2022/03/24 00:25:55;;;;;;;45.58;26.75;;;12.60;99.90;;;13.08;62.68;102850.84;5073957;28;20037;-60
2022/03/24 00:28:23;;;;;;;32.30;24.63;;;12.60;99.90;;;13.07;63.59;102838.41;5073592;28;20037;-60
2022/03/24 00:30:52;;;;;;;50.35;30.67;;;12.60;99.90;;;13.05;63.03;102835.72;5072057;28;20052;-59
2022/03/24 00:33:22;;;;;;;48.28;33.00;;;12.60;99.90;;;13.12;62.33;102848.28;5073689;28;20154;-60
2022/03/24 00:35:51;;;;;;;50.60;31.63;;;12.60;99.90;;;13.13;62.22;102839.41;5073510;28;20068;-60
2022/03/24 00:38:20;;;;;;;52.60;34.47;;;12.60;99.90;;;13.10;62.48;102828.75;5073606;28;20060;-59
2022/03/24 00:40:49;;;;;;;58.60;34.58;;;12.60;99.90;;;13.11;62.09;102830.53;5072204;28;20743;-59
2022/03/24 00:43:17;;;;;;;57.45;36.63;;;12.60;99.90;;;13.05;61.75;102830.41;5089101;28;20498;-60
2022/03/24 00:45:45;;;;;;;60.42;37.30;;;12.50;99.90;;;13.03;61.08;102832.16;5073527;28;20052;-59
2022/03/24 00:48:14;;;;;;;56.10;35.88;;;12.50;99.90;;;13.04;61.05;102836.63;5073396;28;20041;-59
2022/03/24 00:50:44;;;;;;;55.58;33.70;;;12.50;99.90;;;13.08;61.23;102830.50;5073330;28;20064;-59
2022/03/24 00:53:12;;;;;;;51.30;32.90;;;12.60;99.90;;;13.11;62.35;102834.94;5073303;28;20085;-59
2022/03/24 00:55:41;;;;;;;60.40;38.55;;;12.60;99.90;;;13.14;61.83;102829.69;5071747;28;20162;-59
2022/03/24 00:58:10;;;;;;;63.70;40.05;;;12.60;99.90;;;13.09;61.82;102826.03;5073172;28;20045;-59
2022/03/24 01:00:40;;;;;;;75.63;46.45;;;12.60;99.90;;;13.18;61.30;102821.78;5072893;28;20048;-59
2022/03/24 01:03:10;;;;;;;72.10;46.33;;;12.70;99.90;;;13.33;61.25;102821.13;5071728;28;20405;-60
2022/03/24 01:05:38;;;;;;;83.03;52.53;;;12.80;99.90;;;13.50;61.16;102819.63;5073359;28;20454;-59
2022/03/24 01:08:09;;;;;;;86.63;54.47;;;13.00;99.90;;;13.57;61.46;102811.75;5072784;28;20414;-60
2022/03/24 01:10:38;;;;;;;79.07;52.50;;;13.10;99.90;;;13.59;61.28;102794.06;5071298;28;20102;-59
2022/03/24 01:13:07;;;;;;;83.70;53.70;;;13.30;99.90;;;13.79;61.27;102820.03;5072558;28;20155;-59
2022/03/24 01:15:37;;;;;;;84.00;54.15;;;13.40;99.90;;;13.77;60.69;102835.97;5070346;28;20048;-60
2022/03/24 01:18:07;;;;;;;90.05;54.53;;;13.40;99.90;;;13.79;60.61;102818.28;5071389;28;20088;-60
2022/03/24 01:20:36;;;;;;;81.38;52.90;;;13.40;99.90;;;13.74;60.08;102812.00;5071707;28;20040;-60
2022/03/24 01:23:04;;;;;;;80.72;52.80;;;13.30;99.90;;;13.69;59.90;102811.03;5072687;28;20198;-60
2022/03/24 01:25:34;;;;;;;97.72;53.15;;;13.30;99.90;;;13.66;59.75;102805.69;5072427;28;20418;-59
2022/03/24 01:28:03;;;;;;;76.15;48.35;;;13.20;99.90;;;13.61;60.15;102811.81;5072697;28;20106;-60
2022/03/24 01:30:32;;;;;;;60.47;41.35;;;13.20;99.90;;;13.52;60.23;102800.16;5072373;28;20436;-60
2022/03/24 01:33:00;;;;;;;63.90;40.70;;;13.10;99.90;;;13.30;61.07;102795.41;5072592;28;20068;-60
2022/03/24 01:35:28;;;;;;;39.28;29.27;;;12.90;99.90;;;13.12;63.19;102799.53;5072426;28;20529;-60
2022/03/24 01:37:57;;;;;;;32.28;24.33;;;12.70;99.90;;;13.00;63.48;102793.97;5071214;28;20177;-59
2022/03/24 01:40:25;;;;;;;54.10;37.03;;;12.50;99.90;;;12.92;63.12;102790.31;5072763;28;20040;-60
2022/03/24 01:42:55;;;;;;;41.53;29.90;;;12.40;99.90;;;12.83;62.74;102799.03;5105008;28;20048;-59
2022/03/24 01:45:25;;;;;;;43.88;29.40;;;12.40;99.90;;;12.77;63.10;102796.25;5072474;28;20453;-59
2022/03/24 01:47:54;;;;;;;47.40;30.10;;;12.20;99.90;;;12.68;63.54;102796.97;5072673;28;20079;-60
2022/03/24 01:50:22;;;;;;;46.33;32.58;;;12.20;99.90;;;12.62;63.51;102793.31;5104598;28;20147;-59
2022/03/24 01:52:50;;;;;;;54.53;36.67;;;12.10;99.90;;;12.61;63.41;102795.09;5072339;28;20142;-60
2022/03/24 01:55:20;;;;;;;50.15;32.45;;;12.10;99.90;;;12.51;63.65;102790.47;5070995;28;20091;-60
2022/03/24 01:57:49;;;;;;;36.25;26.63;;;12.10;99.90;;;12.31;63.62;102793.63;5071940;28;20101;-59
2022/03/24 02:00:20;;;;;;;23.55;18.42;;;11.90;99.90;;;12.17;63.81;102789.81;5088061;28;20438;-60
2022/03/24 02:02:52;;;;;;;47.20;28.25;;;11.70;99.90;;;12.06;64.13;102796.66;5072387;28;20091;-59
2022/03/24 02:05:21;;;;;;;;;;;11.60;99.90;;;12.00;63.53;102788.56;5072656;28;20044;-59
2022/03/24 02:07:50;;;;;;;55.38;35.33;;;11.50;99.90;;;12.06;63.39;102784.28;5087521;28;19924;-59
2022/03/24 02:10:18;;;;;;;55.10;32.78;;;11.60;99.90;;;11.97;63.43;102780.53;5070651;28;20486;-59
2022/03/24 02:12:52;;;;;;;53.40;33.58;;;11.50;99.90;;;11.95;63.59;102791.13;5070771;28;20465;-59
2022/03/24 02:15:22;;;;;;;43.40;29.42;;;11.50;99.90;;;11.93;64.42;102786.63;5070689;28;20084;-59
2022/03/24 02:17:52;;;;;;;36.08;27.17;;;11.50;99.90;;;11.85;64.32;102775.88;5071653;28;20437;-60
2022/03/24 02:20:22;;;;;;;;;;;11.40;99.90;;;11.92;64.55;102774.25;5071091;28;20044;-59
2022/03/24 02:22:53;;;;;;;38.67;25.02;;;11.50;99.90;;;11.74;64.99;102756.19;5070583;28;19974;-59
2022/03/24 02:25:22;;;;;;;33.40;23.48;;;11.40;99.90;;;11.87;65.64;102778.53;5071833;28;20446;-59
2022/03/24 02:27:54;;;;;;;69.22;41.67;;;11.40;99.90;;;11.77;65.92;102778.38;5071867;28;20117;-59
2022/03/24 02:30:24;;;;;;;33.65;23.35;;;11.30;99.90;;;11.77;66.49;102774.81;5071487;28;20075;-59
2022/03/24 02:32:53;;;;;;;35.35;23.70;;;11.30;99.90;;;11.74;66.53;102772.09;5071865;28;20459;-59
2022/03/24 02:35:21;;;;;;;33.00;22.50;;;11.20;99.90;;;11.69;66.93;102772.00;5072535;28;20105;-59
2022/03/24 02:37:51;;;;;;;42.13;28.05;;;11.20;99.90;;;11.64;66.65;102776.28;5071725;28;20044;-60
2022/03/24 02:40:20;;;;;;;36.35;25.20;;;11.20;99.90;;;11.57;66.03;102758.47;5071502;28;20446;-59
2022/03/24 02:42:49;;;;;;;65.13;40.35;;;11.20;99.90;;;11.72;65.88;102771.19;5071452;28;20041;-60
2022/03/24 02:45:17;;;;;;;43.33;28.92;;;11.20;99.90;;;11.70;65.42;102771.16;5071907;28;20075;-59
2022/03/24 02:47:46;;;;;;;47.83;30.27;;;11.20;99.90;;;11.69;65.54;102768.47;5071354;28;20076;-59
2022/03/24 02:50:15;;;;;;;48.35;31.05;;;11.20;99.90;;;11.61;65.99;102775.34;5071326;28;20056;-60
2022/03/24 02:52:43;;;;;;;72.10;42.60;;;11.10;99.90;;;11.56;66.32;102774.31;5071271;28;20064;-59
2022/03/24 02:55:13;;;;;;;73.00;44.95;;;11.10;99.90;;;11.60;66.28;102774.44;5071225;28;20043;-59
2022/03/24 02:57:41;;;;;;;55.70;35.58;;;11.10;99.90;;;11.53;66.51;102777.81;5071182;28;20072;-59
2022/03/24 03:00:11;;;;;;;38.90;27.20;;;11.10;99.90;;;11.32;67.24;102776.44;5071117;28;20083;-60
2022/03/24 03:02:39;;;;;;;44.85;27.25;;;10.90;99.90;;;11.22;68.76;102775.31;5071439;28;20261;-59
2022/03/24 03:05:09;;;;;;;42.83;28.25;;;10.70;99.90;;;11.19;68.50;102779.66;5071149;28;20044;-59
2022/03/24 03:07:37;;;;;;;83.88;50.78;;;10.70;99.90;;;11.19;68.55;102779.66;5071118;28;20118;-59
2022/03/24 03:10:07;;;;;;;84.35;52.33;;;10.70;99.90;;;11.25;68.52;102782.44;5071142;28;20047;-60
2022/03/24 03:12:37;;;;;;;77.82;47.05;;;10.70;99.90;;;11.33;68.15;102772.91;5071384;28;20513;-60
2022/03/24 03:15:07;;;;;;;71.15;44.78;;;10.80;99.90;;;11.31;68.35;102771.97;5071124;28;20501;-60
2022/03/24 03:17:36;;;;;;;85.55;53.67;;;10.80;99.90;;;11.38;68.07;102769.50;5071283;28;20056;-59
2022/03/24 03:20:07;;;;;;;86.32;52.90;;;10.90;99.90;;;11.27;68.38;102778.06;5070947;28;20048;-60
2022/03/24 03:22:35;;;;;;;86.32;52.00;;;10.80;99.90;;;11.22;68.56;102764.72;5086895;28;20040;-59
2022/03/24 03:25:04;;;;;;;49.80;33.10;;;10.80;99.90;;;11.35;68.55;102774.75;5071515;28;20075;-59
2022/03/24 03:27:32;;;;;;;62.92;40.80;;;10.80;99.90;;;11.30;68.94;102771.09;5070893;28;20405;-59
2022/03/24 03:30:02;;;;;;;65.53;39.53;;;10.80;99.90;;;11.37;68.77;102774.78;5070968;28;20068;-59
2022/03/24 03:32:31;;;;;;;58.22;37.53;;;10.90;99.90;;;11.34;68.51;102775.59;5086598;28;20053;-59
2022/03/24 03:35:00;;;;;;;55.67;34.92;;;10.90;99.90;;;11.31;67.62;102775.53;5070884;28;20111;-59
2022/03/24 03:37:28;;;;;;;56.22;35.30;;;10.90;99.90;;;11.26;67.41;102766.59;5070869;28;20040;-60
2022/03/24 03:39:56;;;;;;;50.38;31.88;;;10.80;99.90;;;11.19;67.75;102767.28;5074772;28;20048;-59
2022/03/24 03:42:25;;;;;;;31.65;22.88;;;10.80;99.90;;;11.15;67.89;102777.78;5074409;28;20079;-60
2022/03/24 03:44:54;;;;;;;32.78;24.40;;;10.70;99.90;;;11.07;68.35;102779.38;5074648;28;20402;-59
2022/03/24 03:47:24;;;;;;;33.00;23.83;;;10.60;99.90;;;11.08;68.35;102768.78;5074410;28;20130;-59
2022/03/24 03:49:52;;;;;;;25.55;19.27;;;10.60;99.90;;;10.92;69.06;102768.41;5074858;28;20053;-59
2022/03/24 03:52:28;;;;;;;23.25;17.17;;;10.50;99.90;;;10.84;69.50;102774.38;5074563;28;20049;-59
2022/03/24 03:54:57;;;;;;;25.65;19.73;;;10.40;99.90;;;10.74;69.36;102766.19;5074163;28;20577;-59
2022/03/24 03:57:25;;;;;;;31.42;23.50;;;10.30;99.90;;;10.71;69.73;102766.09;5074595;28;20080;-59
2022/03/24 03:59:54;;;;;;;31.60;23.15;;;10.30;99.90;;;10.29;69.77;102696.19;5074104;28;20494;-59
2022/03/24 04:02:23;;;;;;;31.65;23.02;;;10.30;99.90;;;10.72;70.03;102771.41;5074470;28;20135;-59
2022/03/24 04:04:52;;;;;;;46.72;28.42;;;10.30;99.90;;;10.74;69.93;102768.84;5074141;28;20437;-59
2022/03/24 04:07:20;;;;;;;31.85;24.13;;;10.30;99.90;;;10.76;69.82;102761.81;5073926;28;20095;-59
2022/03/24 04:09:49;;;;;;;27.88;20.55;;;10.30;99.90;;;10.77;69.85;102776.84;5074199;28;20120;-59
2022/03/24 04:12:17;;;;;;;35.42;22.73;;;10.30;99.90;;;10.65;70.69;102773.88;5073931;28;20471;-59
2022/03/24 04:14:46;;;;;;;36.35;25.10;;;10.30;99.90;;;10.75;71.14;102770.59;5073874;28;20044;-59
2022/03/24 04:17:15;;;;;;;34.67;24.35;;;10.30;99.90;;;10.71;70.91;102769.66;5074187;28;20606;-59
2022/03/24 04:19:45;;;;;;;38.60;26.33;;;10.30;99.90;;;10.62;71.32;102752.63;5073785;28;20043;-59
2022/03/24 04:22:13;;;;;;;51.08;33.10;;;10.30;99.90;;;10.74;71.01;102777.66;5074025;28;20494;-59
2022/03/24 04:24:42;;;;;;;48.30;31.67;;;10.30;99.90;;;10.80;70.78;102767.22;5073888;28;20044;-59
2022/03/24 04:27:11;;;;;;;53.75;35.85;;;10.30;99.90;;;10.73;70.10;102775.88;5073682;28;20102;-59
2022/03/24 04:29:40;;;;;;;47.95;33.83;;;10.30;99.90;;;10.71;69.75;102768.75;5073683;28;20064;-59
2022/03/24 04:32:10;;;;;;;56.45;37.85;;;10.30;99.90;;;10.83;68.68;102775.25;5073327;28;20068;-59
2022/03/24 04:34:38;;;;;;;71.25;41.53;;;10.40;99.90;;;11.00;68.63;102778.31;5073552;28;20045;-59
2022/03/24 04:37:08;;;;;;;74.00;46.00;;;10.60;99.90;;;11.15;68.22;102780.44;5073996;28;20083;-60
2022/03/24 04:39:36;;;;;;;65.97;41.33;;;10.70;99.90;;;11.06;68.73;102783.75;5074034;28;20110;-60
2022/03/24 04:42:08;;;;;;;55.08;35.95;;;10.70;99.90;;;10.62;68.76;102699.72;5073445;28;20286;-59
2022/03/24 04:44:36;;;;;;;82.63;50.33;;;10.70;99.90;;;11.01;69.27;102785.41;5073772;28;20045;-59
2022/03/24 04:47:05;;;;;;;59.33;38.47;;;10.60;99.90;;;11.01;69.46;102785.41;5073394;28;20178;-59
2022/03/24 04:49:33;;;;;;;49.95;33.55;;;10.60;99.90;;;10.96;70.01;102788.78;5073849;28;20048;-59
2022/03/24 04:52:03;;;;;;;56.00;37.28;;;10.50;99.90;;;10.83;70.29;102780.53;5073256;28;20563;-59
2022/03/24 04:54:32;;;;;;;54.35;37.53;;;10.40;99.90;;;10.81;70.06;102782.25;5073314;28;20094;-59
2022/03/24 04:57:01;;;;;;;55.95;37.90;;;10.40;99.90;;;10.78;70.28;102807.75;5073256;28;20167;-59
2022/03/24 04:59:29;;;;;;;59.10;38.13;;;10.40;99.90;;;10.09;70.35;102673.59;5073192;28;20072;-59
2022/03/24 05:01:58;;;;;;;61.78;39.55;;;10.30;99.90;;;10.71;70.86;102787.28;5073491;28;20588;-59
2022/03/24 05:04:26;;;;;;;49.55;34.50;;;10.30;99.90;;;10.69;70.59;102786.31;5073349;28;20482;-59
2022/03/24 05:06:58;;;;;;;51.00;34.03;;;10.20;99.90;;;10.68;70.76;102795.13;5073064;28;20521;-60
2022/03/24 05:09:26;;;;;;;50.67;33.65;;;10.20;99.90;;;10.51;70.68;102764.69;5073149;28;20068;-58
2022/03/24 05:11:56;;;;;;;26.17;20.52;;;10.20;99.90;;;10.55;70.22;102788.63;5073108;28;20041;-58
2022/03/24 05:14:24;;;;;;;30.13;23.13;;;10.10;99.90;;;10.47;69.96;102784.00;5072871;28;20520;-58
2022/03/24 05:16:53;;;;;;;58.50;37.42;;;10.00;99.90;;;10.41;70.58;102784.72;5072747;28;20045;-58
2022/03/24 05:19:21;;;;;;;61.72;39.78;;;10.00;99.90;;;10.48;70.73;102793.72;5072660;28;20083;-59
2022/03/24 05:21:50;;;;;;;58.50;38.55;;;10.00;99.90;;;10.44;70.78;102789.19;5072702;28;20048;-60
2022/03/24 05:24:18;;;;;;;67.55;44.67;;;10.00;99.90;;;10.54;71.19;102794.78;5072839;28;20087;-59
2022/03/24 05:26:47;;;;;;;69.97;45.00;;;10.10;99.90;;;10.58;71.56;102795.75;5072743;28;20478;-59
2022/03/24 05:29:17;;;;;;;48.33;32.25;;;10.10;99.90;;;10.42;71.15;102797.09;5071543;28;20147;-59
2022/03/24 05:31:46;;;;;;;69.85;43.58;;;10.00;99.90;;;10.47;70.49;102795.44;5072804;28;20060;-59
2022/03/24 05:34:14;;;;;;;78.40;47.50;;;10.00;99.90;;;10.53;70.97;102800.91;5072672;28;20076;-58
2022/03/24 05:36:43;;;;;;;87.70;52.17;;;10.10;99.90;;;10.59;70.92;102795.78;5072358;28;20048;-59
2022/03/24 05:39:12;;;;;;;92.18;56.83;;;10.10;99.90;;;10.72;70.75;102804.97;5072384;28;20052;-58
2022/03/24 05:41:41;;;;;;;103.07;61.13;;;10.20;99.90;;;10.82;71.03;102797.28;5072561;28;20539;-59
2022/03/24 05:44:09;;;;;;;98.95;59.22;;;10.30;99.90;;;10.93;70.93;102801.94;5072172;28;20496;-58
2022/03/24 05:46:48;;;;;;;98.70;58.88;;;10.50;99.90;;;11.00;70.71;102804.78;5072746;28;20048;-59
2022/03/24 05:49:18;;;;;;;;;;;10.50;99.90;;;10.91;69.72;102807.22;5072628;28;20041;-60
2022/03/24 05:51:48;;;;;;;89.72;55.17;;;10.50;99.90;;;10.84;69.96;102803.50;5072099;28;19924;-59
2022/03/24 05:54:18;;;;;;;78.32;49.83;;;10.40;99.90;;;10.89;69.70;102800.97;5072263;28;20071;-59
2022/03/24 05:56:47;;;;;;;89.32;53.38;;;10.50;99.90;;;10.76;69.64;102798.88;5072318;28;20056;-59
2022/03/24 05:59:16;;;;;;;88.53;52.85;;;10.40;99.90;;;10.97;69.24;102793.22;5071811;28;20079;-59
2022/03/24 06:01:48;;;;;;;83.47;50.65;;;10.50;99.90;;;10.91;69.39;102799.28;5071461;28;20587;-59
2022/03/24 06:04:19;;;;;;;76.03;48.00;;;10.50;99.90;;;10.95;69.10;102794.94;5071897;28;20072;-59
2022/03/24 06:06:53;;;;;;;57.60;38.55;;;10.50;99.90;;;10.36;69.24;102717.56;5071779;28;20090;-60
2022/03/24 06:09:22;;;;;;;52.95;35.78;;;10.40;99.90;;;10.65;68.67;102803.88;5072105;28;20052;-59
2022/03/24 06:11:52;;;;;;;54.08;35.25;;;10.30;99.90;;;10.50;68.59;102805.22;5071675;28;20044;-59
2022/03/24 06:14:20;;;;;;;50.83;34.27;;;10.10;99.90;;;10.55;68.65;102795.69;5104439;28;20045;-59
2022/03/24 06:16:51;;;;;;;52.03;34.88;;;10.10;99.90;;;10.67;68.73;102795.97;5071622;28;20360;-59
2022/03/24 06:19:19;;;;;;;64.22;40.13;;;10.20;99.90;;;10.77;67.82;102803.31;5071604;28;20048;-59
2022/03/24 06:21:48;;;;;;;66.97;43.78;;;10.30;99.90;;;10.94;67.75;102801.13;5070544;28;20483;-59
2022/03/24 06:24:17;;;;;;;65.82;42.13;;;10.50;99.90;;;11.07;68.15;102813.78;5071731;28;20052;-59
2022/03/24 06:26:45;;;;;;;60.92;40.58;;;10.60;99.90;;;11.12;68.72;102805.09;5071856;28;20457;-59
2022/03/24 06:29:14;;;;;;;60.58;38.97;;;10.70;99.90;;;11.30;68.72;102826.75;5070423;28;20064;-59
2022/03/24 06:31:43;;;;;;;50.60;34.33;;;10.80;99.90;;;11.42;68.65;102804.94;5071278;28;20479;-59
2022/03/24 06:34:13;;;;;;;54.38;37.28;;;10.90;99.90;;;11.53;68.06;102809.63;5071575;28;20106;-59
2022/03/24 06:36:42;;;;;;;;;;;11.10;99.90;;;11.59;67.23;102782.34;5071880;28;20037;-59
2022/03/24 06:39:10;;;;;;;64.72;42.28;;;11.20;99.90;;;11.85;66.62;102788.22;5071587;28;20019;-59
2022/03/24 06:41:39;;;;;;;83.22;50.95;;;11.50;99.90;;;12.44;65.32;102822.19;5071327;28;20508;-59
2022/03/24 06:44:07;;;;;;;79.43;50.38;;;11.90;99.90;;;12.69;64.20;102820.03;5071554;28;20071;-59
2022/03/24 06:46:38;;;;;;;78.47;48.97;;;12.20;99.90;;;13.18;63.68;102827.09;5071216;28;20497;-60
2022/03/24 06:49:08;;;;;;;78.63;49.45;;;12.60;99.90;;;13.59;62.14;102820.66;5071617;28;20049;-60
2022/03/24 06:51:37;;;;;;;80.67;50.50;;;13.10;99.90;;;13.98;60.91;102828.28;5071332;28;20048;-59
2022/03/24 06:54:06;;;;;;;69.50;43.83;;;13.50;99.90;;;14.07;61.07;102823.06;5071602;28;20045;-59
2022/03/24 06:56:35;;;;;;;62.78;43.05;;;13.70;99.90;;;14.12;61.38;102821.38;5071210;28;20322;-59
2022/03/24 06:59:04;;;;;;;65.68;43.22;;;13.80;99.90;;;14.12;61.05;102823.13;5071322;28;20040;-60
2022/03/24 07:01:32;;;;;;;67.82;45.38;;;13.70;99.90;;;14.22;62.09;102825.94;5071246;28;20131;-60
2022/03/24 07:04:01;;;;;;;62.20;41.70;;;13.80;99.90;;;14.41;63.18;102832.41;5070967;28;20048;-59
2022/03/24 07:06:30;;;;;;;59.05;40.50;;;13.90;99.90;;;14.41;62.87;102825.31;5071119;28;20041;-60
2022/03/24 07:09:00;;;;;;;57.35;40.38;;;14.00;99.90;;;14.39;62.80;102807.53;5071120;28;20048;-60
2022/03/24 07:11:28;;;;;;;53.10;37.95;;;14.00;99.90;;;14.61;62.96;102832.63;5071321;28;20047;-61
2022/03/24 07:13:57;;;;;;;52.45;38.63;;;14.10;99.90;;;14.85;62.33;102828.41;5073547;28;20406;-60
2022/03/24 07:16:26;;;;;;;55.83;37.47;;;14.30;99.90;;;15.10;61.94;102835.75;5073779;28;20094;-60
2022/03/24 07:18:55;;;;;;;58.40;40.00;;;14.60;99.90;;;15.34;60.93;102833.31;5074931;28;20051;-61
2022/03/24 07:21:23;;;;;;;60.72;41.40;;;14.80;99.90;;;15.58;60.66;102829.91;5074774;28;20059;-61
2022/03/24 07:23:52;;;;;;;56.17;40.90;;;15.00;99.90;;;15.74;60.44;102836.25;5074789;28;20102;-60
2022/03/24 07:26:23;;;;;;;63.15;44.85;;;15.20;99.90;;;15.94;60.91;102834.59;5073572;28;20048;-61
2022/03/24 07:28:51;;;;;;;70.63;49.33;;;15.40;99.90;;;16.12;60.32;102834.69;5075049;28;20045;-60
2022/03/24 07:31:23;;;;;;;78.93;52.75;;;15.60;99.90;;;15.58;58.40;102722.34;5074774;28;20498;-61
2022/03/24 07:33:55;;;;;;;77.18;53.92;;;15.80;99.90;;;16.54;57.90;102845.56;5074981;28;20115;-60
2022/03/24 07:36:25;;;;;;;81.80;55.38;;;16.10;99.90;;;16.69;56.93;102820.63;5074887;28;20059;-60
2022/03/24 07:38:57;;;;;;;82.68;54.15;;;16.30;99.90;;;16.99;56.22;102845.63;5074506;28;20477;-60
2022/03/24 07:41:29;;;;;;;85.82;54.30;;;16.60;99.90;;;17.54;55.49;102849.22;5075212;28;20418;-60
2022/03/24 07:43:57;;;;;;;77.55;53.80;;;17.00;99.90;;;17.60;55.25;102845.63;5074817;28;20037;-61
2022/03/24 07:46:27;;;;;;;78.70;51.95;;;17.20;99.90;;;17.58;55.69;102847.41;5074553;28;20040;-60
2022/03/24 07:48:55;;;;;;;85.13;54.95;;;17.30;99.90;;;17.74;54.33;102852.75;5074436;28;20842;-60
2022/03/24 07:51:24;;;;;;;85.70;54.38;;;17.40;99.90;;;17.77;53.66;102857.19;5074700;28;20079;-61
2022/03/24 07:54:00;;;;;;;81.97;53.08;;;17.40;99.90;;;18.18;53.88;102860.66;5074690;28;20045;-61
2022/03/24 07:56:32;;;;;;;77.68;52.10;;;17.70;99.90;;;18.59;52.86;102858.72;5074476;28;20041;-61
2022/03/24 07:59:00;;;;;;;80.68;54.50;;;18.10;99.90;;;18.86;51.47;102863.91;5072919;28;20048;-61
2022/03/24 08:01:31;;;;;;;80.80;53.35;;;18.40;99.90;;;19.02;50.82;102864.69;5074463;28;20044;-60
2022/03/24 08:04:00;;;;;;;;;;;18.60;99.90;;;19.14;50.64;102871.75;5075280;28;20059;-61
2022/03/24 08:06:31;;;;;;;74.45;50.50;;;18.80;99.90;;;19.26;50.53;102868.97;5074745;28;19930;-60
2022/03/24 08:09:00;;;;;;;74.57;50.30;;;18.90;99.90;;;19.28;48.62;102876.09;5074117;28;20041;-61
2022/03/24 08:11:30;;;;;;;73.22;52.78;;;18.90;99.90;;;19.11;50.26;102871.75;5074018;28;20287;-61
2022/03/24 08:13:58;;;;;;;72.10;50.60;;;18.70;99.90;;;19.08;49.67;102866.44;5074575;28;20051;-61
2022/03/24 08:16:28;;;;;;;73.30;51.97;;;18.60;99.90;;;19.49;49.84;102867.03;5074219;28;20072;-61
2022/03/24 08:18:56;;;;;;;72.72;49.45;;;19.00;99.90;;;19.78;49.94;102881.06;5072734;28;20508;-61
2022/03/24 08:21:25;;;;;;;72.15;50.80;;;19.30;99.90;;;19.63;48.29;102876.72;5073736;28;20039;-61
2022/03/24 08:23:54;;;;;;;65.90;47.60;;;19.30;99.90;;;19.83;48.35;102881.88;5073746;28;20461;-61
2022/03/24 08:26:22;;;;;;;72.50;50.28;;;19.40;99.90;;;19.68;48.50;102879.38;5073840;28;20072;-60
2022/03/24 08:28:58;;;;;;;70.28;49.63;;;19.30;99.90;;;19.65;48.09;102868.63;5073878;28;20046;-61
2022/03/24 08:31:27;;;;;;;69.50;48.25;;;19.30;99.90;;;19.72;48.86;102883.81;5072295;28;20402;-60
2022/03/24 08:33:57;;;;;;;73.90;49.40;;;19.30;99.90;;;20.06;48.25;102878.94;5073808;28;20044;-61
2022/03/24 08:36:25;;;;;;;69.13;50.20;;;19.60;99.90;;;20.18;48.40;102893.19;5106406;28;20423;-60
2022/03/24 08:38:56;;;;;;;64.78;49.58;;;19.70;99.90;;;20.57;48.24;102895.38;5073616;28;20186;-61
2022/03/24 08:41:25;;;;;;;67.60;50.13;;;20.10;99.90;;;20.55;46.56;102896.31;5073406;28;20067;-60
2022/03/24 08:43:54;;;;;;;69.05;50.13;;;20.20;99.90;;;20.88;47.13;102895.84;5073514;28;20060;-60
2022/03/24 08:46:25;;;;;;;68.10;49.60;;;20.40;99.90;;;21.30;46.66;102897.91;5072232;28;20049;-61
2022/03/24 08:48:55;;;;;;;75.57;50.22;;;20.80;99.90;;;21.51;45.64;102896.63;5073431;28;20075;-61
2022/03/24 08:51:23;;;;;;;70.55;50.75;;;21.10;99.90;;;21.25;42.25;102906.97;5106070;28;20057;-60
2022/03/24 08:53:52;;;;;;;71.07;49.63;;;21.00;99.90;;;20.79;43.29;102893.25;5072062;28;20048;-60
2022/03/24 08:56:20;;;;;;;77.40;51.03;;;20.50;99.90;;;21.24;43.54;102908.75;5073437;28;20046;-59
2022/03/24 08:58:50;;;;;;;71.10;49.97;;;20.80;99.90;;;21.49;42.96;102899.34;5073355;28;20040;-60
2022/03/24 09:01:21;;;;;;;67.95;50.00;;;21.00;99.90;;;20.90;44.15;102911.94;5073182;28;20045;-59
2022/03/24 09:03:51;;;;;;;71.38;50.03;;;20.60;99.90;;;20.64;45.47;102915.88;5073148;28;20044;-59
2022/03/24 09:06:21;;;;;;;73.20;49.40;;;20.30;99.90;;;20.77;46.17;102911.22;5072983;28;20101;-59
2022/03/24 09:08:50;;;;;;;72.30;50.67;;;20.30;99.90;;;19.72;46.77;102910.66;5073338;28;20102;-60
2022/03/24 09:11:19;;;;;;;68.70;48.60;;;19.60;99.90;;;19.54;45.64;102909.03;5073201;28;20048;-60
2022/03/24 09:13:47;;;;;;;80.20;47.55;;;19.20;99.90;;;18.77;44.69;102901.53;5072957;28;20136;-60
2022/03/24 09:16:16;;;;;;;68.20;46.97;;;18.60;99.90;;;18.45;45.90;102903.44;5072845;28;20090;-59
2022/03/24 09:18:47;;;;;;;69.45;47.28;;;18.10;99.90;;;18.88;44.69;102905.03;5072488;28;20462;-60
2022/03/24 09:21:16;;;;;;;71.82;46.63;;;18.50;99.90;;;18.28;46.59;102899.00;5072519;28;20075;-59
2022/03/24 09:23:45;;;;;;;66.47;43.45;;;18.10;99.90;;;18.98;44.30;102902.28;5071059;28;20044;-60
2022/03/24 09:26:14;;;;;;;64.28;41.30;;;18.40;99.90;;;19.94;43.47;102912.22;5072335;28;20048;-59
2022/03/24 09:29:01;;;;;;;55.60;39.55;;;19.30;99.90;;;20.73;41.29;102922.06;5072419;28;20055;-59
2022/03/24 09:31:30;;;;;;;54.42;38.45;;;20.20;99.90;;;21.25;38.98;102917.72;5072749;28;20052;-60
2022/03/24 09:34:00;;;;;;;54.00;36.35;;;20.70;99.90;;;21.81;37.33;102925.78;5072363;28;20044;-60
2022/03/24 09:36:29;;;;;;;57.83;36.57;;;21.40;99.90;;;22.09;35.98;102918.94;5071504;28;20101;-60
2022/03/24 09:38:58;;;;;;;46.83;32.58;;;21.80;99.90;;;22.47;35.28;102928.09;5072300;28;20340;-60
2022/03/24 09:41:28;;;;;;;48.65;32.78;;;22.10;99.90;;;22.63;34.13;102914.25;5072332;28;20048;-60
2022/03/24 09:43:58;;;;;;;46.15;33.83;;;22.30;99.90;;;22.71;32.77;102923.06;5072388;28;20075;-60
2022/03/24 09:46:28;;;;;;;36.25;25.30;;;22.50;99.90;;;22.14;28.50;102913.47;5072244;28;20114;-60
2022/03/24 09:48:59;;;;;;;43.53;29.00;;;22.20;74.80;;;22.32;30.96;102919.38;5071976;28;20040;-60
2022/03/24 09:51:29;;;;;;;39.30;25.77;;;22.00;99.90;;;22.56;28.91;102922.50;5072332;28;20044;-60
2022/03/24 09:53:57;;;;;;;35.35;27.65;;;22.20;90.80;;;22.13;30.67;102917.97;5072172;28;20037;-60
2022/03/24 09:56:26;;;;;;;41.33;26.23;;;21.80;99.90;;;21.85;28.86;102914.03;5071769;28;20048;-59
2022/03/24 09:58:54;;;;;;;43.63;27.60;;;21.70;91.00;;;21.89;32.48;102915.72;5072344;28;20048;-60
2022/03/24 10:01:22;;;;;;;41.85;29.50;;;21.50;99.90;;;22.31;31.95;102917.63;5072080;28;20135;-60
2022/03/24 10:04:09;;;;;;;43.90;29.02;;;21.80;99.90;;;22.73;31.70;102918.53;5072000;28;20051;-60
2022/03/24 10:06:40;;;;;;;40.22;28.10;;;22.20;99.90;;;22.67;30.98;102843.09;5070702;28;20060;-60
2022/03/24 10:09:09;;;;;;;45.00;27.77;;;22.60;99.90;;;23.20;30.16;102922.84;5072112;28;20040;-60